sensor_id;sensor_type;location;lat;lon;timestamp;temperature;humidity
70051;SHT30;57391;51.306;22.680;2022-09-25T19:28:21;14.35;73.88
70051;SHT30;57391;51.306;22.680;2022-09-25T19:31:01;14.34;73.85
70051;SHT30;57391;51.306;22.680;2022-09-25T19:33:33;14.31;73.96
70051;SHT30;57391;51.306;22.680;2022-09-25T19:36:04;14.28;73.99
70051;SHT30;57391;51.306;22.680;2022-09-25T19:38:37;14.23;74.10
70051;SHT30;57391;51.306;22.680;2022-09-25T19:41:16;14.20;74.13
70051;SHT30;57391;51.306;22.680;2022-09-25T19:43:49;14.18;74.46
70051;SHT30;57391;51.306;22.680;2022-09-25T19:46:17;14.15;74.64
70051;SHT30;57391;51.306;22.680;2022-09-25T19:48:46;14.13;74.73
70051;SHT30;57391;51.306;22.680;2022-09-25T19:51:14;14.11;74.88
70051;SHT30;57391;51.306;22.680;2022-09-25T19:53:45;14.09;74.91
70051;SHT30;57391;51.306;22.680;2022-09-25T19:56:12;14.06;75.00
70051;SHT30;57391;51.306;22.680;2022-09-25T19:58:40;14.01;75.17
70051;SHT30;57391;51.306;22.680;2022-09-25T20:01:15;13.97;75.29
70051;SHT30;57391;51.306;22.680;2022-09-25T20:04:03;13.94;75.31
70051;SHT30;57391;51.306;22.680;2022-09-25T20:06:33;13.94;75.34
70051;SHT30;57391;51.306;22.680;2022-09-25T20:09:03;13.93;75.33
70051;SHT30;57391;51.306;22.680;2022-09-25T20:11:32;13.93;75.34
70051;SHT30;57391;51.306;22.680;2022-09-25T20:14:02;13.93;75.28
70051;SHT30;57391;51.306;22.680;2022-09-25T20:16:31;13.92;75.30
70051;SHT30;57391;51.306;22.680;2022-09-25T20:19:01;13.89;75.30
70051;SHT30;57391;51.306;22.680;2022-09-25T20:21:32;13.86;75.26
70051;SHT30;57391;51.306;22.680;2022-09-25T20:24:03;13.83;75.24
70051;SHT30;57391;51.306;22.680;2022-09-25T20:26:33;13.78;75.36
70051;SHT30;57391;51.306;22.680;2022-09-25T20:29:06;13.74;75.60
70051;SHT30;57391;51.306;22.680;2022-09-25T20:31:41;13.70;75.54
70051;SHT30;57391;51.306;22.680;2022-09-25T20:34:11;13.65;75.42
70051;SHT30;57391;51.306;22.680;2022-09-25T20:36:42;13.60;75.33
70051;SHT30;57391;51.306;22.680;2022-09-25T20:39:09;13.55;75.32
70051;SHT30;57391;51.306;22.680;2022-09-25T20:41:37;13.49;75.71
70051;SHT30;57391;51.306;22.680;2022-09-25T20:44:04;13.45;76.38
70051;SHT30;57391;51.306;22.680;2022-09-25T20:46:32;13.41;76.57
70051;SHT30;57391;51.306;22.680;2022-09-25T20:49:00;13.39;76.30
70051;SHT30;57391;51.306;22.680;2022-09-25T20:51:29;13.38;76.62
70051;SHT30;57391;51.306;22.680;2022-09-25T20:54:02;13.36;76.55
70051;SHT30;57391;51.306;22.680;2022-09-25T20:56:34;13.38;76.59
70051;SHT30;57391;51.306;22.680;2022-09-25T20:59:03;13.35;76.54
70051;SHT30;57391;51.306;22.680;2022-09-25T21:01:32;13.32;76.48
70051;SHT30;57391;51.306;22.680;2022-09-25T21:04:03;13.31;76.92
70051;SHT30;57391;51.306;22.680;2022-09-25T21:06:33;13.31;77.23
70051;SHT30;57391;51.306;22.680;2022-09-25T21:09:04;13.32;77.34
70051;SHT30;57391;51.306;22.680;2022-09-25T21:11:42;13.30;77.52
70051;SHT30;57391;51.306;22.680;2022-09-25T21:14:10;13.28;77.65
70051;SHT30;57391;51.306;22.680;2022-09-25T21:16:45;13.26;77.77
70051;SHT30;57391;51.306;22.680;2022-09-25T21:19:15;13.24;77.75
70051;SHT30;57391;51.306;22.680;2022-09-25T21:21:44;13.21;77.68
70051;SHT30;57391;51.306;22.680;2022-09-25T21:24:13;13.18;77.71
70051;SHT30;57391;51.306;22.680;2022-09-25T21:26:44;13.11;77.66
70051;SHT30;57391;51.306;22.680;2022-09-25T21:29:12;13.05;77.65
70051;SHT30;57391;51.306;22.680;2022-09-25T21:31:42;12.98;77.68
70051;SHT30;57391;51.306;22.680;2022-09-25T21:34:10;12.90;77.64
70051;SHT30;57391;51.306;22.680;2022-09-25T21:36:41;12.84;77.85
70051;SHT30;57391;51.306;22.680;2022-09-25T21:39:09;12.78;77.89
70051;SHT30;57391;51.306;22.680;2022-09-25T21:41:38;12.74;77.97
70051;SHT30;57391;51.306;22.680;2022-09-25T21:44:08;12.73;78.13
70051;SHT30;57391;51.306;22.680;2022-09-25T21:46:39;12.70;78.27
70051;SHT30;57391;51.306;22.680;2022-09-25T21:49:07;12.66;78.38
70051;SHT30;57391;51.306;22.680;2022-09-25T21:51:41;12.64;78.47
70051;SHT30;57391;51.306;22.680;2022-09-25T21:54:10;12.61;78.55
70051;SHT30;57391;51.306;22.680;2022-09-25T21:56:39;12.59;78.72
70051;SHT30;57391;51.306;22.680;2022-09-25T21:59:06;12.56;78.80
70051;SHT30;57391;51.306;22.680;2022-09-25T22:01:35;12.54;78.84
70051;SHT30;57391;51.306;22.680;2022-09-25T22:04:05;12.53;78.90
70051;SHT30;57391;51.306;22.680;2022-09-25T22:06:38;12.50;78.93
70051;SHT30;57391;51.306;22.680;2022-09-25T22:09:11;12.46;78.87
70051;SHT30;57391;51.306;22.680;2022-09-25T22:11:44;12.41;78.78
70051;SHT30;57391;51.306;22.680;2022-09-25T22:14:13;12.38;78.67
70051;SHT30;57391;51.306;22.680;2022-09-25T22:16:41;12.34;78.67
70051;SHT30;57391;51.306;22.680;2022-09-25T22:19:15;12.29;78.76
70051;SHT30;57391;51.306;22.680;2022-09-25T22:21:47;12.25;78.91
70051;SHT30;57391;51.306;22.680;2022-09-25T22:24:16;12.21;79.00
70051;SHT30;57391;51.306;22.680;2022-09-25T22:26:45;12.18;79.05
70051;SHT30;57391;51.306;22.680;2022-09-25T22:29:15;12.16;79.16
70051;SHT30;57391;51.306;22.680;2022-09-25T22:31:43;12.12;79.24
70051;SHT30;57391;51.306;22.680;2022-09-25T22:34:23;12.09;79.41
70051;SHT30;57391;51.306;22.680;2022-09-25T22:36:54;12.07;79.57
70051;SHT30;57391;51.306;22.680;2022-09-25T22:39:22;12.03;79.66
70051;SHT30;57391;51.306;22.680;2022-09-25T22:41:50;12.01;79.75
70051;SHT30;57391;51.306;22.680;2022-09-25T22:44:19;12.00;79.83
70051;SHT30;57391;51.306;22.680;2022-09-25T22:46:47;11.98;80.01
70051;SHT30;57391;51.306;22.680;2022-09-25T22:49:14;11.96;80.18
70051;SHT30;57391;51.306;22.680;2022-09-25T22:51:41;11.94;80.33
70051;SHT30;57391;51.306;22.680;2022-09-25T22:54:09;11.95;80.40
70051;SHT30;57391;51.306;22.680;2022-09-25T22:56:41;11.97;80.50
70051;SHT30;57391;51.306;22.680;2022-09-25T22:59:10;11.97;80.50
70051;SHT30;57391;51.306;22.680;2022-09-25T23:01:45;11.99;80.53
70051;SHT30;57391;51.306;22.680;2022-09-25T23:04:16;11.99;80.60
70051;SHT30;57391;51.306;22.680;2022-09-25T23:06:50;11.99;80.60
70051;SHT30;57391;51.306;22.680;2022-09-25T23:09:22;12.00;80.61
70051;SHT30;57391;51.306;22.680;2022-09-25T23:11:54;12.01;80.63
70051;SHT30;57391;51.306;22.680;2022-09-25T23:14:24;12.01;80.68
70051;SHT30;57391;51.306;22.680;2022-09-25T23:16:56;12.01;80.75
70051;SHT30;57391;51.306;22.680;2022-09-25T23:19:24;12.03;80.79
70051;SHT30;57391;51.306;22.680;2022-09-25T23:21:51;12.03;80.78
70051;SHT30;57391;51.306;22.680;2022-09-25T23:24:20;12.03;80.80
70051;SHT30;57391;51.306;22.680;2022-09-25T23:26:48;12.03;80.75
70051;SHT30;57391;51.306;22.680;2022-09-25T23:29:16;12.03;80.73
70051;SHT30;57391;51.306;22.680;2022-09-25T23:31:45;12.02;80.74
70051;SHT30;57391;51.306;22.680;2022-09-25T23:34:14;12.01;80.74
70051;SHT30;57391;51.306;22.680;2022-09-25T23:36:43;12.00;80.77
70051;SHT30;57391;51.306;22.680;2022-09-25T23:39:13;11.97;80.77
70051;SHT30;57391;51.306;22.680;2022-09-25T23:41:44;11.96;80.85
70051;SHT30;57391;51.306;22.680;2022-09-25T23:44:12;11.96;80.87
70051;SHT30;57391;51.306;22.680;2022-09-25T23:46:40;11.95;80.88
70051;SHT30;57391;51.306;22.680;2022-09-25T23:49:09;11.94;80.82
70051;SHT30;57391;51.306;22.680;2022-09-25T23:51:37;11.94;80.81
70051;SHT30;57391;51.306;22.680;2022-09-25T23:54:05;11.94;80.82
70051;SHT30;57391;51.306;22.680;2022-09-25T23:56:33;11.91;80.82
70051;SHT30;57391;51.306;22.680;2022-09-25T23:59:01;11.90;80.79
